Aérodrome :
LOGIN :

S'inscrire | Disclaimer

   EN    FR    IT 

 










Légende :    VFR   VFR Marginal   IFR   IFR Intensif   IFR Très Intensif
Visi : 
Plafond : 
>= 8 km
>= 3000ft
5 à 8 km
1000 à 3000 ft
1500m à 5 km
500 à 1000 ft
800 à 1500m
200 à 500 ft
< 800m
< 200 ft
Symboles :   Orages  Brouillard  Fortes neiges  Fortes précipitations  Vent > 20 kt
SIGMETs :   Divers  Orages  Givrage  Turbulence  Onde Orograph.  Cendres Volcan.







- Altitude de l'aérodrome : 499 ft
- Code IATA : TLS
- Voir les cartes d'approche


LFBO - Toulouse / Blagnac

DERNIER METAR :
  • 221930Z AUTO 16012KT 9999 FEW010 SCT120 BKN140 20/11 Q1016 NOSIG

METARs EXPIRÉS :
  • 221900Z AUTO 15009KT CAVOK 21/10 Q1015 NOSIG
  • 221830Z AUTO 15008KT CAVOK 21/09 Q1015 NOSIG
  • 221800Z AUTO 14008KT CAVOK 22/10 Q1015 NOSIG
  • 221730Z AUTO 17005KT 130V200 9999 FEW008 SCT160 24/12 Q1015 NOSIG
  • 221700Z AUTO 17006KT CAVOK 24/12 Q1015 NOSIG

TAF TAF LFBO
Valide du 22 à 18h jusqu'au 24 à 00h UTC


221700Z 2218/2324 16004KT CAVOK
BECMG 2222/2224 VRB02KT
BECMG 2312/2314 30006KT SCT020TCU
PROB30
TEMPO 2315/2319 -SHRA
ATIS : +33 5 62 74 66 36
Pas de NOTAMs connus pour ce terrain.
1 SIGMET publié pour la FIR Bordeaux (LFBB) :
 
Orages noyés dans la masse
LFBB SIGMET 1 VALID 221900/222100 LFPW
LFBB BORDEAUX FIR/UIR EMBD TS FCST WI N4245 E00000 - N4300 W00145 - N4430 W00145 - N4430 W00100 - N4345 E00100 - N4245 E00000 TOP FL350 STNR INTSF=



MET'MAP, la Météo Aéronautique d'un coup d'oeil ! - Copyright ORBIFLY Décembre 2007 - Disclaimer

ORBIFLY MET'MAP TEAM :

Programmation & Développement : Alexandra Zaïnal
Conception & Développement : Baudouin d'Aumeries
Co-Programmation & Développement : Marc-Olivier Méhu
Soutien technique & logistique : Manuel Goepfert

Contact : metmap@orbifly.com




SOURCES & CREDITS :

   NOAA